Time;durP1;ratioP1;P1;durP2;ratioP2;P2;SDS_P1;SDS_P2;PMS_P1;PMS_P2;Temp;Humidity;BMP_temperature;BMP_pressure;BME280_temperature;BME280_humidity;BME280_pressure;Samples;Min_cycle;Max_cycle;Signal;HPM_P1;HPM_P2
2022/12/19 00:01:02;;;;;;;52.08;26.38;;;2.40;92.40;;;;;;5049577;28;20024;-76
2022/12/19 00:03:27;;;;;;;58.22;31.92;;;2.30;92.40;;;;;;5037037;28;20387;-75
2022/12/19 00:05:53;;;;;;;53.08;27.23;;;2.40;92.40;;;;;;5041097;28;20018;-76
2022/12/19 00:08:19;;;;;;;63.83;30.75;;;2.40;92.40;;;;;;5036110;28;20030;-76
2022/12/19 00:10:54;;;;;;;56.08;29.05;;;2.40;92.40;;;;;;5048409;28;20025;-76
2022/12/19 00:13:20;;;;;;;55.53;31.48;;;2.40;92.60;;;;;;5044513;28;20135;-76
2022/12/19 00:15:46;;;;;;;58.60;31.50;;;2.40;92.60;;;;;;5049150;28;20112;-75
2022/12/19 00:18:11;;;;;;;56.10;29.30;;;2.40;92.70;;;;;;5044694;28;20029;-75
2022/12/19 00:20:37;;;;;;;55.05;28.67;;;2.40;92.70;;;;;;5039066;28;20021;-75
2022/12/19 00:23:03;;;;;;;59.25;33.15;;;2.30;92.80;;;;;;5039568;28;20021;-73
2022/12/19 00:25:28;;;;;;;46.92;24.27;;;2.40;92.80;;;;;;5047892;28;20029;-75
2022/12/19 00:27:54;;;;;;;48.97;26.30;;;2.50;92.90;;;;;;5044512;28;20427;-75
2022/12/19 00:30:20;;;;;;;63.13;35.53;;;2.50;92.90;;;;;;5038820;28;20029;-75
2022/12/19 00:32:46;;;;;;;66.25;36.08;;;2.40;92.90;;;;;;5045798;28;20021;-75
2022/12/19 00:35:12;;;;;;;50.40;28.95;;;2.50;93.00;;;;;;5023155;28;20045;-76
2022/12/19 00:37:38;;;;;;;64.13;34.88;;;2.50;93.00;;;;;;5048504;28;20020;-75
2022/12/19 00:40:05;;;;;;;58.10;29.35;;;2.50;93.10;;;;;;5043539;28;20096;-74
2022/12/19 00:42:30;;;;;;;56.00;30.35;;;2.40;93.30;;;;;;5049271;28;20112;-75
2022/12/19 00:44:56;;;;;;;54.45;28.20;;;2.50;93.40;;;;;;5034103;28;20434;-75
2022/12/19 00:47:26;;;;;;;61.47;33.33;;;2.50;93.50;;;;;;5046245;28;20111;-75
2022/12/19 00:49:51;;;;;;;70.07;36.55;;;2.50;93.50;;;;;;5039881;28;20021;-76
2022/12/19 00:52:17;;;;;;;69.05;35.03;;;2.60;93.60;;;;;;5046702;28;20048;-75
2022/12/19 00:54:43;;;;;;;67.07;34.08;;;2.60;93.70;;;;;;5026432;28;20072;-76
2022/12/19 00:57:08;;;;;;;62.83;32.83;;;2.50;93.90;;;;;;5048183;28;20033;-75
2022/12/19 00:59:34;;;;;;;48.17;25.50;;;2.60;94.00;;;;;;5044997;28;20028;-76
2022/12/19 01:02:00;;;;;;;67.68;34.33;;;2.60;93.90;;;;;;5046602;28;20781;-75
2022/12/19 01:04:25;;;;;;;58.47;30.40;;;2.60;93.80;;;;;;5043810;28;20033;-76
2022/12/19 01:06:53;;;;;;;76.82;36.40;;;2.60;94.00;;;;;;5048142;28;20025;-76
2022/12/19 01:09:20;;;;;;;69.38;34.75;;;2.50;94.20;;;;;;5039274;28;20013;-77
2022/12/19 01:14:30;;;;;;;62.72;33.30;;;2.60;94.40;;;;;;5036372;28;20146;-74
2022/12/19 01:16:55;;;;;;;72.07;38.05;;;2.60;94.50;;;;;;5048018;28;20072;-76
2022/12/19 01:19:21;;;;;;;69.38;35.78;;;2.60;94.60;;;;;;5047284;28;20067;-75
2022/12/19 01:21:47;;;;;;;45.63;24.33;;;2.70;94.60;;;;;;5041793;28;20021;-76
2022/12/19 01:24:12;;;;;;;67.63;35.97;;;2.70;94.50;;;;;;5039760;28;20021;-76
2022/12/19 01:26:38;;;;;;;63.05;32.65;;;2.70;94.50;;;;;;5037397;28;20108;-75
2022/12/19 01:29:04;;;;;;;59.28;29.67;;;2.70;94.60;;;;;;5037036;28;20117;-75
2022/12/19 01:31:30;;;;;;;61.50;33.13;;;2.60;94.70;;;;;;5037899;28;20081;-73
2022/12/19 01:33:58;;;;;;;75.18;36.78;;;2.60;94.80;;;;;;5043729;28;20112;-74
2022/12/19 01:36:24;;;;;;;48.95;26.77;;;2.70;94.80;;;;;;5047346;28;20033;-76
2022/12/19 01:38:49;;;;;;;54.63;31.08;;;2.70;94.70;;;;;;5034996;28;20032;-75
2022/12/19 01:41:15;;;;;;;68.30;36.28;;;2.70;94.80;;;;;;5034770;28;20025;-76
2022/12/19 01:44:16;;;;;;;65.28;32.70;;;2.80;94.80;;;;;;5049228;28;20040;-75
2022/12/19 01:46:47;;;;;;;74.30;39.20;;;2.80;94.80;;;;;;4963332;28;20031;-75
2022/12/19 01:49:41;;;;;;;63.97;32.53;;;2.90;94.80;;;;;;5020062;28;20178;-75
2022/12/19 01:52:08;;;;;;;60.85;31.27;;;2.90;94.70;;;;;;5042232;28;20041;-76
2022/12/19 01:54:37;;;;;;;70.50;37.17;;;2.90;94.50;;;;;;5052915;28;20095;-76
2022/12/19 01:57:07;;;;;;;66.80;34.45;;;2.90;94.70;;;;;;5050073;28;20028;-75
2022/12/19 01:59:55;;;;;;;62.78;32.25;;;2.90;94.70;;;;;;5038495;28;20025;-77
2022/12/19 02:02:37;;;;;;;52.88;26.58;;;2.90;94.80;;;;;;5049783;28;20033;-76
2022/12/19 02:05:04;;;;;;;45.83;23.30;;;3.00;94.70;;;;;;5039872;28;20047;-75
2022/12/19 02:07:31;;;;;;;74.88;40.33;;;3.00;94.60;;;;;;5047525;28;20078;-74
2022/12/19 02:09:57;;;;;;;75.32;37.45;;;3.00;94.70;;;;;;5034054;28;20022;-76
2022/12/19 02:12:25;;;;;;;77.30;42.50;;;3.10;94.90;;;;;;5048116;28;20017;-75
2022/12/19 02:14:52;;;;;;;71.38;36.58;;;3.10;95.10;;;;;;5041562;28;20106;-76
2022/12/19 02:17:51;;;;;;;63.88;33.60;;;3.10;94.80;;;;;;5045570;28;20117;-75
2022/12/19 02:20:34;;;;;;;66.63;34.47;;;3.10;94.80;;;;;;5051748;28;20047;-75
2022/12/19 02:23:18;;;;;;;64.70;34.05;;;3.20;94.80;;;;;;5043208;28;20029;-74
2022/12/19 02:26:18;;;;;;;56.40;30.25;;;3.10;95.00;;;;;;5050184;28;20047;-75
2022/12/19 02:29:20;;;;;;;70.75;35.90;;;3.10;94.90;;;;;;5042994;28;20032;-75
2022/12/19 02:31:52;;;;;;;67.03;37.33;;;3.20;94.90;;;;;;5042886;28;20478;-75
2022/12/19 02:34:36;;;;;;;70.35;36.42;;;3.20;94.80;;;;;;5042829;28;20396;-74
2022/12/19 02:37:10;;;;;;;76.93;40.55;;;3.30;94.80;;;;;;5048649;28;20088;-75
2022/12/19 02:39:42;;;;;;;58.78;32.10;;;3.30;95.10;;;;;;5026510;28;20064;-74
2022/12/19 02:42:11;;;;;;;74.35;40.70;;;3.30;95.20;;;;;;5050021;28;20032;-75
2022/12/19 02:44:42;;;;;;;79.37;40.63;;;3.40;95.10;;;;;;5043449;28;20419;-74
2022/12/19 02:47:08;;;;;;;80.72;43.00;;;3.50;95.40;;;;;;5045452;28;20017;-74
2022/12/19 02:49:36;;;;;;;53.15;28.92;;;3.50;95.30;;;;;;5037905;28;20022;-76
2022/12/19 02:52:12;;;;;;;79.65;40.53;;;3.60;95.30;;;;;;5045623;28;20025;-76
2022/12/19 02:54:38;;;;;;;81.03;40.22;;;3.60;95.40;;;;;;5040834;28;20029;-75
2022/12/19 02:57:18;;;;;;;70.78;37.55;;;3.70;95.40;;;;;;5050804;28;20025;-75
2022/12/19 02:59:49;;;;;;;65.45;33.08;;;3.70;95.40;;;;;;5042279;28;20124;-74
2022/12/19 03:02:24;;;;;;;82.20;40.92;;;3.70;95.50;;;;;;5037841;28;20025;-74
2022/12/19 03:05:12;;;;;;;66.50;35.08;;;3.70;95.10;;;;;;5033280;28;20140;-75
2022/12/19 03:08:07;;;;;;;64.00;33.40;;;3.80;95.20;;;;;;5048634;28;20028;-74
2022/12/19 03:10:44;;;;;;;62.85;32.50;;;3.80;95.10;;;;;;5045596;28;20113;-75
2022/12/19 03:13:41;;;;;;;65.60;34.92;;;3.80;95.10;;;;;;5043755;28;20723;-75
2022/12/19 03:16:09;;;;;;;56.42;29.58;;;3.70;95.10;;;;;;5043941;28;20167;-76
2022/12/19 03:18:35;;;;;;;71.00;36.30;;;3.80;95.10;;;;;;5038295;28;20522;-75
2022/12/19 03:21:09;;;;;;;75.05;37.42;;;3.80;95.20;;;;;;5046133;28;20021;-75
2022/12/19 03:23:35;;;;;;;73.65;38.67;;;3.80;95.30;;;;;;5037135;28;20041;-75
2022/12/19 03:26:08;;;;;;;71.40;37.30;;;3.80;95.30;;;;;;5046159;28;20059;-74
2022/12/19 03:28:50;;;;;;;65.13;33.65;;;3.80;95.60;;;;;;5048714;28;20102;-74
2022/12/19 03:31:18;;;;;;;62.10;32.10;;;3.90;95.50;;;;;;5042447;28;20021;-75
2022/12/19 03:33:45;;;;;;;67.47;34.85;;;3.90;95.50;;;;;;5050507;28;20086;-75
2022/12/19 03:36:17;;;;;;;85.28;42.33;;;3.90;95.80;;;;;;5033064;28;20072;-76
2022/12/19 03:38:45;;;;;;;81.47;38.42;;;3.90;95.80;;;;;;5046578;28;20025;-75
2022/12/19 03:41:12;;;;;;;79.40;37.50;;;4.00;95.50;;;;;;5047314;28;20513;-74
2022/12/19 03:43:40;;;;;;;77.15;39.40;;;4.00;95.60;;;;;;5052356;28;20589;-75
2022/12/19 03:46:17;;;;;;;53.58;29.73;;;4.00;95.20;;;;;;5046548;28;20071;-76
2022/12/19 03:48:52;;;;;;;79.22;39.63;;;4.00;95.30;;;;;;5051922;28;20033;-75
2022/12/19 03:51:42;;;;;;;75.03;37.92;;;4.10;95.30;;;;;;5035670;28;20455;-75
2022/12/19 03:54:15;;;;;;;77.57;37.28;;;4.10;95.30;;;;;;5040062;28;20033;-75
2022/12/19 03:56:59;;;;;;;73.65;38.13;;;4.10;95.50;;;;;;5046969;28;20041;-74
2022/12/19 03:59:38;;;;;;;56.65;28.40;;;4.10;95.80;;;;;;5045963;28;20475;-75
2022/12/19 04:02:05;;;;;;;73.50;36.80;;;4.20;95.90;;;;;;5040981;28;20025;-74
2022/12/19 04:04:34;;;;;;;64.75;32.97;;;4.20;95.90;;;;;;5037835;28;20055;-74
2022/12/19 04:07:04;;;;;;;78.65;38.58;;;4.20;95.90;;;;;;5042786;28;20027;-75
2022/12/19 04:09:31;;;;;;;75.93;37.65;;;4.30;95.80;;;;;;5050866;28;20025;-75
2022/12/19 04:12:01;;;;;;;74.60;36.97;;;4.30;96.20;;;;;;5044279;28;20052;-75
2022/12/19 04:14:33;;;;;;;58.70;30.77;;;4.30;96.10;;;;;;5037179;28;20058;-75
2022/12/19 04:17:23;;;;;;;57.33;29.55;;;4.30;95.70;;;;;;5038362;28;20032;-77
2022/12/19 04:20:03;;;;;;;57.35;30.48;;;4.40;95.50;;;;;;5050788;28;20024;-75
2022/12/19 04:22:51;;;;;;;70.63;35.95;;;4.40;95.90;;;;;;5047483;28;20021;-75
2022/12/19 04:25:39;;;;;;;58.45;32.30;;;4.50;96.00;;;;;;5049881;28;20024;-75
2022/12/19 04:28:11;;;;;;;58.03;30.90;;;4.50;95.40;;;;;;5046664;28;20033;-75
2022/12/19 04:30:40;;;;;;;48.90;26.67;;;4.50;95.70;;;;;;5035706;28;20025;-75
2022/12/19 04:33:05;;;;;;;44.13;23.02;;;4.50;95.80;;;;;;5046350;28;20100;-75
2022/12/19 04:35:31;;;;;;;68.65;36.40;;;4.50;95.70;;;;;;5050489;28;20104;-74
2022/12/19 04:37:57;;;;;;;63.63;33.47;;;4.50;95.80;;;;;;5037214;28;20101;-75
2022/12/19 04:40:22;;;;;;;47.22;25.88;;;4.50;96.10;;;;;;5049254;28;20399;-75
2022/12/19 04:42:48;;;;;;;48.78;26.23;;;4.60;95.90;;;;;;5031782;28;20032;-74
2022/12/19 04:45:17;;;;;;;67.78;35.15;;;4.60;96.00;;;;;;5047965;28;20055;-74
2022/12/19 04:47:42;;;;;;;48.25;27.20;;;4.70;96.00;;;;;;5045911;28;20021;-75
2022/12/19 04:50:08;;;;;;;78.07;34.45;;;4.70;96.10;;;;;;5049064;28;20024;-76
2022/12/19 04:52:34;;;;;;;45.65;25.65;;;4.70;96.00;;;;;;5046649;28;20013;-73
2022/12/19 04:55:00;;;;;;;46.28;25.50;;;4.70;96.00;;;;;;5050189;28;20098;-74
2022/12/19 04:57:28;;;;;;;38.17;20.83;;;4.80;96.20;;;;;;5045198;28;20028;-75
2022/12/19 04:59:54;;;;;;;53.45;28.98;;;4.80;96.10;;;;;;5049644;28;20025;-75
2022/12/19 05:02:20;;;;;;;61.22;32.58;;;4.90;96.20;;;;;;5046191;28;20025;-75
2022/12/19 05:04:50;;;;;;;73.03;32.95;;;4.90;96.10;;;;;;5041538;28;20032;-75
2022/12/19 05:07:18;;;;;;;;;;;4.90;96.00;;;;;;5042904;28;20049;-74
2022/12/19 05:09:44;;;;;;;28.73;17.42;;;5.00;96.20;;;;;;5046756;28;20420;-75
2022/12/19 05:12:10;;;;;;;35.58;20.65;;;5.00;95.90;;;;;;5048053;28;20112;-76
2022/12/19 05:14:35;;;;;;;54.08;27.48;;;5.00;96.30;;;;;;5047436;28;20380;-77
2022/12/19 05:17:01;;;;;;;39.75;22.63;;;5.00;96.50;;;;;;5049584;28;20025;-76
2022/12/19 05:19:27;;;;;;;31.25;18.25;;;5.10;96.40;;;;;;5049744;28;20471;-76
2022/12/19 05:21:52;;;;;;;42.35;24.65;;;5.10;96.10;;;;;;5038483;28;20028;-75
2022/12/19 05:24:18;;;;;;;40.67;22.60;;;5.20;96.50;;;;;;5045440;28;20021;-77
2022/12/19 05:26:43;;;;;;;40.17;22.42;;;5.20;96.30;;;;;;5048528;28;20123;-75
2022/12/19 05:29:09;;;;;;;45.90;27.65;;;5.30;96.40;;;;;;5031510;28;20032;-75
2022/12/19 05:31:36;;;;;;;49.08;26.67;;;5.40;96.00;;;;;;5049869;28;20017;-75
2022/12/19 05:34:01;;;;;;;41.03;23.08;;;5.40;96.20;;;;;;5043375;28;20039;-76
2022/12/19 05:36:27;;;;;;;33.92;19.90;;;5.50;95.60;;;;;;5049697;28;20029;-75
2022/12/19 05:38:53;;;;;;;27.83;18.00;;;5.60;96.00;;;;;;5045046;28;20475;-76
2022/12/19 05:41:20;;;;;;;30.55;19.23;;;5.60;96.10;;;;;;5048689;28;20021;-75
2022/12/19 05:43:50;;;;;;;36.05;21.17;;;5.60;96.00;;;;;;5045254;28;20494;-75
2022/12/19 05:46:16;;;;;;;43.33;23.30;;;5.60;96.20;;;;;;5047198;28;20112;-75
2022/12/19 05:48:42;;;;;;;32.42;20.13;;;5.70;95.80;;;;;;5043977;28;20097;-73
2022/12/19 05:51:07;;;;;;;42.85;26.40;;;5.70;96.10;;;;;;5046175;28;20044;-75
2022/12/19 05:53:37;;;;;;;43.17;26.58;;;5.80;96.30;;;;;;5046722;28;20021;-74
2022/12/19 05:56:05;;;;;;;45.58;25.67;;;5.80;96.50;;;;;;5045556;28;20078;-73
2022/12/19 05:58:31;;;;;;;28.27;18.15;;;5.80;96.60;;;;;;5028926;28;20025;-74
2022/12/19 06:01:07;;;;;;;44.58;25.10;;;5.80;95.90;;;;;;5039633;28;20360;-74
2022/12/19 06:03:33;;;;;;;46.10;25.23;;;5.90;96.30;;;;;;5045200;28;20120;-74
2022/12/19 06:06:03;;;;;;;25.60;15.15;;;6.00;96.60;;;;;;5041928;28;20108;-74
2022/12/19 06:08:29;;;;;;;42.75;24.38;;;6.00;96.00;;;;;;5035459;28;20399;-73
2022/12/19 06:10:58;;;;;;;52.75;27.80;;;5.90;96.90;;;;;;5045567;28;20490;-75
2022/12/19 06:13:24;;;;;;;30.65;17.17;;;6.00;97.00;;;;;;5047566;28;20513;-74
2022/12/19 06:15:49;;;;;;;39.88;23.20;;;6.00;97.20;;;;;;5026030;28;20112;-74
2022/12/19 06:18:15;;;;;;;22.10;13.50;;;6.10;97.00;;;;;;5047766;28;20021;-75
2022/12/19 06:20:41;;;;;;;27.30;15.40;;;6.10;96.60;;;;;;5046429;28;20025;-74
2022/12/19 06:23:06;;;;;;;33.05;21.00;;;6.20;96.40;;;;;;5047530;28;20395;-75
2022/12/19 06:25:33;;;;;;;27.20;16.80;;;6.20;95.90;;;;;;5048944;28;20025;-74
2022/12/19 06:27:58;;;;;;;23.33;13.25;;;6.20;95.90;;;;;;5050714;28;20489;-74
2022/12/19 06:30:27;;;;;;;20.40;12.02;;;6.20;95.80;;;;;;5047425;28;20108;-75
2022/12/19 06:32:52;;;;;;;18.90;13.85;;;6.20;95.60;;;;;;5044963;28;20470;-74
2022/12/19 06:35:18;;;;;;;26.05;18.65;;;6.30;94.80;;;;;;5046435;28;20331;-74
2022/12/19 06:37:44;;;;;;;18.55;11.88;;;6.30;95.40;;;;;;5042886;28;20488;-75
2022/12/19 06:42:21;;;;;;;20.27;13.30;;;6.40;95.40;;;;;;5049978;28;20036;-75
2022/12/19 06:42:55;;;;;;;22.33;15.07;;;6.40;95.30;;;;;;5047941;28;20064;-75
2022/12/19 06:45:21;;;;;;;17.00;11.23;;;6.50;95.60;;;;;;5047521;28;20052;-75
2022/12/19 06:47:48;;;;;;;29.75;18.15;;;6.50;95.40;;;;;;5046875;28;20651;-73
2022/12/19 06:50:14;;;;;;;21.48;13.60;;;6.60;95.50;;;;;;5041209;28;20025;-75
2022/12/19 06:52:39;;;;;;;20.98;13.07;;;6.60;95.60;;;;;;5044793;28;20033;-74
2022/12/19 06:55:05;;;;;;;29.10;17.92;;;6.70;95.50;;;;;;5051580;28;20492;-75
2022/12/19 06:57:31;;;;;;;28.20;17.85;;;6.70;95.00;;;;;;5041536;28;20029;-75
2022/12/19 06:59:57;;;;;;;27.58;17.40;;;6.70;95.50;;;;;;5052141;28;20108;-75
2022/12/19 07:02:30;;;;;;;26.58;17.00;;;6.80;94.90;;;;;;5043930;28;20032;-75
2022/12/19 07:05:05;;;;;;;30.25;18.40;;;6.80;95.20;;;;;;5032174;28;20029;-74
2022/12/19 07:07:32;;;;;;;19.85;12.13;;;6.90;95.10;;;;;;5044750;28;20017;-75
2022/12/19 07:09:58;;;;;;;23.50;16.10;;;7.00;94.70;;;;;;5049070;28;20028;-75
2022/12/19 07:12:23;;;;;;;24.02;15.52;;;7.00;94.90;;;;;;5044909;28;20032;-74
2022/12/19 07:14:49;;;;;;;25.60;17.35;;;7.10;95.30;;;;;;5023650;28;20057;-74
2022/12/19 07:17:15;;;;;;;20.45;12.68;;;7.10;95.40;;;;;;5023484;28;20014;-74
2022/12/19 07:19:41;;;;;;;18.83;13.02;;;7.20;96.20;;;;;;5027581;28;20022;-73
2022/12/19 07:22:08;;;;;;;28.67;18.30;;;7.30;96.10;;;;;;5025569;28;20021;-74
2022/12/19 07:24:35;;;;;;;29.05;17.98;;;7.30;96.40;;;;;;5027943;28;20476;-74
2022/12/19 07:27:01;;;;;;;28.98;16.60;;;7.40;96.60;;;;;;5026720;28;20049;-74
2022/12/19 07:29:27;;;;;;;27.95;15.85;;;7.40;96.30;;;;;;5029105;28;20035;-74
2022/12/19 07:31:52;;;;;;;29.13;19.35;;;7.40;96.80;;;;;;5026975;28;20472;-74
2022/12/19 07:34:18;;;;;;;18.45;11.25;;;7.50;96.70;;;;;;5027290;28;20124;-74
2022/12/19 07:36:44;;;;;;;18.63;11.55;;;7.50;96.30;;;;;;5029630;28;20454;-72
2022/12/19 07:39:10;;;;;;;19.20;11.05;;;7.50;96.30;;;;;;5026165;28;20025;-75
2022/12/19 07:41:37;;;;;;;16.38;10.65;;;7.50;96.00;;;;;;5016285;28;20476;-73
2022/12/19 07:44:02;;;;;;;22.95;15.02;;;7.60;96.20;;;;;;5027530;28;20080;-74
2022/12/19 07:46:31;;;;;;;20.63;13.60;;;7.60;96.00;;;;;;5029916;28;20078;-74
2022/12/19 07:48:57;;;;;;;18.75;13.07;;;7.70;96.40;;;;;;5026167;28;20320;-73
2022/12/19 07:51:22;;;;;;;19.52;10.68;;;7.70;96.50;;;;;;5021955;28;20032;-74
2022/12/19 07:53:48;;;;;;;19.63;14.05;;;7.80;96.20;;;;;;5028864;28;20029;-75
2022/12/19 07:56:14;;;;;;;16.55;10.48;;;7.80;96.60;;;;;;5018429;28;20022;-74
2022/12/19 07:58:40;;;;;;;22.25;14.40;;;7.80;96.60;;;;;;5024345;28;20021;-73
2022/12/19 08:01:05;;;;;;;21.67;13.52;;;7.90;96.60;;;;;;5021972;28;20428;-74
2022/12/19 08:03:32;;;;;;;25.42;15.85;;;7.90;96.50;;;;;;5024845;28;20049;-73
2022/12/19 08:06:05;;;;;;;17.60;11.77;;;8.00;96.60;;;;;;5028959;28;20060;-74
2022/12/19 08:08:31;;;;;;;23.55;14.90;;;8.00;96.00;;;;;;5024206;28;20026;-72
2022/12/19 08:11:18;;;;;;;18.38;12.80;;;8.00;96.40;;;;;;5022249;28;20029;-73
2022/12/19 08:13:44;;;;;;;17.55;10.63;;;8.00;96.60;;;;;;5035239;28;20493;-73
2022/12/19 08:16:10;;;;;;;20.45;14.52;;;8.10;96.60;;;;;;5030501;28;20051;-74
2022/12/19 08:18:36;;;;;;;15.02;10.20;;;8.10;96.80;;;;;;5041301;28;20025;-72
2022/12/19 08:21:02;;;;;;;15.10;10.25;;;8.20;96.60;;;;;;5043928;28;20379;-74
2022/12/19 08:23:28;;;;;;;18.42;11.43;;;8.20;96.70;;;;;;5046920;28;20062;-73
2022/12/19 08:26:02;;;;;;;12.40;8.52;;;8.30;96.80;;;;;;5045118;28;20041;-73
2022/12/19 08:28:32;;;;;;;12.98;8.55;;;8.30;96.90;;;;;;5047714;28;20036;-75
2022/12/19 08:31:04;;;;;;;11.43;7.40;;;8.40;95.70;;;;;;5044120;28;20468;-75
2022/12/19 08:33:29;;;;;;;16.63;11.02;;;8.40;95.50;;;;;;5034713;28;20608;-74
2022/12/19 08:35:55;;;;;;;20.65;13.10;;;8.50;95.40;;;;;;5044337;28;20029;-72
2022/12/19 08:38:20;;;;;;;14.00;8.98;;;8.50;95.70;;;;;;5048599;28;20371;-74
2022/12/19 08:40:55;;;;;;;14.73;8.23;;;8.50;96.30;;;;;;5046319;28;20423;-73
2022/12/19 08:43:21;;;;;;;12.65;8.10;;;8.50;96.10;;;;;;5035324;28;20017;-73
2022/12/19 08:45:49;;;;;;;13.20;8.05;;;8.50;95.90;;;;;;5047010;28;20551;-74
2022/12/19 08:48:18;;;;;;;13.68;9.32;;;8.60;96.00;;;;;;5048155;28;20032;-74
2022/12/19 08:51:01;;;;;;;13.82;9.93;;;8.60;96.20;;;;;;5035595;28;20028;-74
2022/12/19 08:53:28;;;;;;;11.63;7.68;;;8.60;96.50;;;;;;5047629;28;20025;-73
2022/12/19 08:56:03;;;;;;;14.98;9.60;;;8.60;95.90;;;;;;5041870;28;20047;-75
2022/12/19 08:58:29;;;;;;;12.30;8.00;;;8.70;95.60;;;;;;5047611;28;20060;-73
2022/12/19 09:00:59;;;;;;;11.98;7.82;;;8.70;96.10;;;;;;5043430;28;20017;-73
2022/12/19 09:03:25;;;;;;;15.15;9.25;;;8.70;95.70;;;;;;5043660;28;20025;-74
2022/12/19 09:06:02;;;;;;;14.45;7.93;;;8.80;95.70;;;;;;5038932;28;20028;-74
2022/12/19 09:08:28;;;;;;;8.93;6.00;;;8.80;95.40;;;;;;5039654;28;20426;-75
2022/12/19 09:11:04;;;;;;;9.40;7.07;;;8.80;95.20;;;;;;5047641;28;20013;-74
2022/12/19 09:13:30;;;;;;;12.75;8.48;;;8.80;95.40;;;;;;5046610;28;20534;-74
2022/12/19 09:16:03;;;;;;;17.77;10.15;;;8.80;95.30;;;;;;5040845;28;20044;-74
2022/12/19 09:18:30;;;;;;;15.05;8.68;;;8.80;95.60;;;;;;5020565;28;20043;-74
2022/12/19 09:20:57;;;;;;;10.50;6.78;;;8.80;95.10;;;;;;5030758;28;20022;-73
2022/12/19 09:23:25;;;;;;;9.80;6.50;;;8.80;95.20;;;;;;5044409;28;20025;-74
2022/12/19 09:25:55;;;;;;;16.23;8.40;;;8.80;94.90;;;;;;5039391;28;20013;-74
2022/12/19 09:28:21;;;;;;;17.13;10.17;;;8.80;95.30;;;;;;5046705;28;20078;-74
2022/12/19 09:30:58;;;;;;;13.10;7.85;;;8.90;95.30;;;;;;5040663;28;20546;-74
2022/12/19 09:33:25;;;;;;;12.65;8.35;;;8.80;95.40;;;;;;5047487;28;20468;-74
2022/12/19 09:35:52;;;;;;;13.57;8.65;;;8.80;94.90;;;;;;5041992;28;20021;-74
2022/12/19 09:38:19;;;;;;;12.13;8.25;;;8.80;95.30;;;;;;5028985;28;20021;-74
2022/12/19 09:41:05;;;;;;;11.18;5.88;;;8.80;95.40;;;;;;5047509;28;20029;-73
2022/12/19 09:44:09;;;;;;;14.48;9.27;;;8.80;95.10;;;;;;5006083;28;20111;-73
2022/12/19 09:46:51;;;;;;;13.02;7.97;;;8.90;95.50;;;;;;5030838;28;20395;-73
2022/12/19 09:49:23;;;;;;;11.85;8.02;;;8.90;95.20;;;;;;5035399;28;20026;-73
2022/12/19 09:52:24;;;;;;;10.65;6.95;;;8.80;95.40;;;;;;5043429;28;20021;-74
2022/12/19 09:55:12;;;;;;;19.60;11.43;;;8.90;95.40;;;;;;5044189;28;20441;-74
2022/12/19 09:58:08;;;;;;;17.65;10.25;;;8.90;95.90;;;;;;5044022;28;20029;-73
2022/12/19 10:00:48;;;;;;;13.68;8.20;;;8.90;96.10;;;;;;5049956;28;20021;-74
2022/12/19 10:03:17;;;;;;;13.82;7.72;;;8.90;96.20;;;;;;5048931;28;20017;-73
2022/12/19 10:05:48;;;;;;;10.48;4.88;;;9.00;95.70;;;;;;5050847;28;20074;-74
2022/12/19 10:08:45;;;;;;;10.93;4.60;;;8.90;95.30;;;;;;5032637;28;20025;-74
2022/12/19 10:11:13;;;;;;;13.45;6.97;;;9.00;92.10;;;;;;5035974;28;20033;-74
2022/12/19 10:14:04;;;;;;;15.73;8.35;;;9.00;93.80;;;;;;5046186;28;20190;-74
2022/12/19 10:16:45;;;;;;;13.88;8.18;;;9.00;94.30;;;;;;5044398;28;20025;-75
2022/12/19 10:19:20;;;;;;;10.43;6.07;;;9.10;94.20;;;;;;5046612;28;20021;-74
2022/12/19 10:21:53;;;;;;;14.23;7.85;;;9.10;94.30;;;;;;5050853;28;20032;-75
2022/12/19 10:24:46;;;;;;;12.35;8.27;;;9.10;95.00;;;;;;5047382;28;20237;-74
2022/12/19 10:27:20;;;;;;;13.07;8.70;;;9.10;95.00;;;;;;5037217;28;20048;-74
2022/12/19 10:30:09;;;;;;;14.70;8.30;;;9.10;95.70;;;;;;5041117;28;20020;-74
2022/12/19 10:32:56;;;;;;;15.35;8.48;;;9.10;96.00;;;;;;5049520;28;20028;-74
2022/12/19 10:35:23;;;;;;;16.95;8.40;;;9.10;95.90;;;;;;5048316;28;20041;-74
2022/12/19 10:38:07;;;;;;;14.98;9.35;;;9.10;95.70;;;;;;5050184;28;20479;-73
2022/12/19 10:40:42;;;;;;;15.25;8.82;;;9.10;96.30;;;;;;5033216;28;20031;-74
2022/12/19 10:43:29;;;;;;;12.35;8.57;;;9.10;96.00;;;;;;5049500;28;20105;-73
2022/12/19 10:46:01;;;;;;;9.75;6.60;;;9.20;95.40;;;;;;5044676;28;20029;-74
2022/12/19 10:48:27;;;;;;;12.38;6.22;;;9.20;95.50;;;;;;5048068;28;20025;-74
2022/12/19 10:50:53;;;;;;;15.30;7.28;;;9.20;95.20;;;;;;5049159;28;20074;-75
2022/12/19 10:53:27;;;;;;;11.07;7.15;;;9.20;95.30;;;;;;5049869;28;20033;-74
2022/12/19 10:55:56;;;;;;;10.43;7.22;;;9.20;95.40;;;;;;5047120;28;20384;-74
2022/12/19 10:58:24;;;;;;;10.93;6.78;;;9.20;95.50;;;;;;5050451;28;20519;-74
2022/12/19 11:00:53;;;;;;;13.77;8.65;;;9.20;95.60;;;;;;5048598;28;20044;-74
2022/12/19 11:03:19;;;;;;;9.82;5.18;;;9.30;95.40;;;;;;5049718;28;20053;-74
2022/12/19 11:05:53;;;;;;;10.25;6.85;;;9.30;95.00;;;;;;5043849;28;20435;-73
2022/12/19 11:08:30;;;;;;;11.68;8.32;;;9.30;94.90;;;;;;5031203;28;20017;-73
2022/12/19 11:11:09;;;;;;;11.98;7.18;;;9.40;95.00;;;;;;5042797;28;20060;-74
2022/12/19 11:13:41;;;;;;;13.63;8.50;;;9.40;94.60;;;;;;5031770;28;20047;-75
2022/12/19 11:16:07;;;;;;;11.98;7.32;;;9.40;95.30;;;;;;5044923;28;20021;-74
2022/12/19 11:18:36;;;;;;;10.75;6.85;;;9.40;95.40;;;;;;5033645;28;20052;-74
2022/12/19 11:21:23;;;;;;;13.30;7.38;;;9.40;95.30;;;;;;5038966;28;20021;-73
2022/12/19 11:23:56;;;;;;;10.40;7.13;;;9.40;95.50;;;;;;5047537;28;20029;-74
2022/12/19 11:26:49;;;;;;;10.63;6.68;;;9.50;95.10;;;;;;5043699;28;20021;-73
2022/12/19 11:29:45;;;;;;;11.45;6.82;;;9.50;95.10;;;;;;5035453;28;20013;-73
2022/12/19 11:32:37;;;;;;;11.70;7.68;;;9.50;95.00;;;;;;5040612;28;20045;-74
2022/12/19 11:35:14;;;;;;;8.25;4.53;;;9.50;95.10;;;;;;5046016;28;20033;-75
2022/12/19 11:38:07;;;;;;;9.20;6.63;;;9.60;94.60;;;;;;5039986;28;20113;-74
2022/12/19 11:40:40;;;;;;;10.82;7.32;;;9.60;94.80;;;;;;5045188;28;20017;-74
2022/12/19 11:43:15;;;;;;;10.10;6.68;;;9.60;95.40;;;;;;5035903;28;20571;-73
2022/12/19 11:45:43;;;;;;;12.35;6.28;;;9.60;95.40;;;;;;5045005;28;20029;-73
2022/12/19 11:48:35;;;;;;;10.02;6.35;;;9.60;95.30;;;;;;5036104;28;20037;-75
2022/12/19 11:51:14;;;;;;;12.40;7.50;;;9.60;95.10;;;;;;5032351;28;20446;-74
2022/12/19 11:54:13;;;;;;;9.25;4.95;;;9.60;95.30;;;;;;5045481;28;20060;-74
2022/12/19 11:56:39;;;;;;;11.02;7.85;;;9.60;94.80;;;;;;5035989;28;20075;-73
2022/12/19 11:59:38;;;;;;;8.77;6.03;;;9.60;95.60;;;;;;5034193;28;20850;-75
2022/12/19 12:02:13;;;;;;;11.48;5.72;;;9.60;95.10;;;;;;5035944;28;20483;-74
2022/12/19 12:05:15;;;;;;;10.65;7.05;;;9.60;95.00;;;;;;5041402;28;20131;-75
2022/12/19 12:07:40;;;;;;;13.07;6.93;;;9.70;94.80;;;;;;5039061;28;20037;-73
2022/12/19 12:10:16;;;;;;;11.07;7.57;;;9.70;95.30;;;;;;5049088;28;20021;-75
2022/12/19 12:12:54;;;;;;;10.90;6.78;;;9.70;95.30;;;;;;5036660;28;20027;-74
2022/12/19 12:15:29;;;;;;;11.20;6.55;;;9.70;95.50;;;;;;5045187;28;20399;-75
2022/12/19 12:18:10;;;;;;;9.73;7.53;;;9.80;95.50;;;;;;5032877;28;20114;-74
2022/12/19 12:20:59;;;;;;;10.35;5.97;;;9.70;95.70;;;;;;5042109;28;20083;-74
2022/12/19 12:23:41;;;;;;;9.43;4.90;;;9.80;95.10;;;;;;5038877;28;20091;-74
2022/12/19 12:26:28;;;;;;;9.30;5.78;;;9.80;95.20;;;;;;5044889;28;20079;-74
2022/12/19 12:28:59;;;;;;;11.07;6.38;;;9.80;95.20;;;;;;5035833;28;20021;-75
2022/12/19 12:32:02;;;;;;;12.88;7.03;;;9.90;95.00;;;;;;5036658;28;20056;-74
2022/12/19 12:34:49;;;;;;;11.23;6.25;;;9.90;95.10;;;;;;5034762;28;20094;-74
2022/12/19 12:37:46;;;;;;;10.52;4.15;;;9.90;94.70;;;;;;5023059;28;20106;-74
2022/12/19 12:40:31;;;;;;;9.90;6.40;;;10.00;94.20;;;;;;5043260;28;20033;-74
2022/12/19 12:43:06;;;;;;;8.93;4.82;;;10.00;94.60;;;;;;5044710;28;20048;-75
2022/12/19 12:45:40;;;;;;;8.90;5.78;;;10.00;94.90;;;;;;5042514;28;20032;-74
2022/12/19 12:48:27;;;;;;;10.13;5.95;;;10.00;94.70;;;;;;5032634;28;20696;-74
2022/12/19 12:50:54;;;;;;;9.77;6.05;;;10.00;95.00;;;;;;5036568;28;20116;-75
2022/12/19 12:53:28;;;;;;;7.95;5.03;;;10.10;94.50;;;;;;5023980;28;20021;-74
2022/12/19 12:55:56;;;;;;;7.82;5.22;;;10.10;94.30;;;;;;5033140;28;20021;-74
2022/12/19 12:58:50;;;;;;;8.75;4.63;;;10.10;94.00;;;;;;5040248;28;20025;-75
2022/12/19 13:01:28;;;;;;;9.32;5.45;;;10.10;94.00;;;;;;5041358;28;20107;-74
2022/12/19 13:04:05;;;;;;;9.40;5.30;;;10.20;93.50;;;;;;5037737;28;20095;-74
2022/12/19 13:06:49;;;;;;;7.30;4.40;;;10.20;93.50;;;;;;5045991;28;20021;-75
2022/12/19 13:09:28;;;;;;;9.07;5.28;;;10.20;93.10;;;;;;5033410;28;20021;-76